DNO456 LGSM-LGSA
Flight info
| Callsign | DNO456 |
|---|---|
| Flight time | 0h 40m |
| Altitude | 30000 |
| Route | URNIL UL609 IKARO UR32 MIL UJ56 RESTI J56 RUSOS |
| Aircraft | B738/M-SDE2E3FGHIRWXY/LB1 |
Departure
| Time | 2026-05-04 12:45 |
|---|---|
| Airport | Samos Airport (LGSM) |
Arrival
| Time | 2026-05-04 13:25 |
|---|---|
| Airport | Chania International Airport (LGSA) |
| Time | Latitude | Longitude | Altitude | Speed | Heading |
|---|---|---|---|---|---|
| 2026-05-04 12:22 | 37.69062 | 26.91335 | 29 ft | 0 kts | 4° |
| 2026-05-04 12:35 | 37.69047 | 26.91334 | 29 ft | 2 kts | 4° |
| 2026-05-04 12:36 | 37.69031 | 26.91332 | 29 ft | 2 kts | 4° |
| 2026-05-04 12:36 | 37.69014 | 26.91331 | 29 ft | 2 kts | 1° |
| 2026-05-04 12:36 | 37.68998 | 26.91332 | 30 ft | 2 kts | 332° |
| 2026-05-04 12:36 | 37.68987 | 26.91344 | 28 ft | 1 kts | 287° |
| 2026-05-04 12:37 | 37.68987 | 26.91345 | 28 ft | 0 kts | 285° |
| 2026-05-04 12:40 | 37.68988 | 26.91341 | 30 ft | 2 kts | 285° |
| 2026-05-04 12:40 | 37.68997 | 26.91299 | 29 ft | 7 kts | 283° |
| 2026-05-04 12:41 | 37.69002 | 26.91216 | 29 ft | 12 kts | 274° |
| 2026-05-04 12:41 | 37.69006 | 26.91097 | 29 ft | 15 kts | 261° |
| 2026-05-04 12:41 | 37.68960 | 26.91061 | 30 ft | 9 kts | 191° |
| 2026-05-04 12:41 | 37.68929 | 26.90997 | 31 ft | 11 kts | 269° |
| 2026-05-04 12:42 | 37.68934 | 26.90886 | 30 ft | 14 kts | 274° |
| 2026-05-04 12:42 | 37.68942 | 26.90749 | 31 ft | 17 kts | 274° |
| 2026-05-04 12:42 | 37.68952 | 26.90588 | 29 ft | 20 kts | 275° |
| 2026-05-04 12:42 | 37.68964 | 26.90403 | 31 ft | 22 kts | 274° |
| 2026-05-04 12:43 | 37.68983 | 26.90219 | 31 ft | 19 kts | 296° |
| 2026-05-04 12:43 | 37.68999 | 26.90125 | 31 ft | 6 kts | 216° |
| 2026-05-04 12:43 | 37.68974 | 26.90153 | 31 ft | 6 kts | 81° |
| 2026-05-04 12:43 | 37.68976 | 26.90191 | 31 ft | 0 kts | 94° |
| 2026-05-04 12:44 | 37.68976 | 26.90197 | 31 ft | 3 kts | 94° |
| 2026-05-04 12:44 | 37.68962 | 26.90453 | 31 ft | 66 kts | 94° |
| 2026-05-04 12:44 | 37.68908 | 26.91345 | 29 ft | 136 kts | 94° |
| 2026-05-04 12:44 | 37.68818 | 26.92746 | 236 ft | 175 kts | 94° |
| 2026-05-04 12:45 | 37.68541 | 26.94358 | 734 ft | 204 kts | 110° |
| 2026-05-04 12:45 | 37.67577 | 26.95761 | 1178 ft | 229 kts | 149° |
| 2026-05-04 12:45 | 37.65980 | 26.96136 | 1489 ft | 242 kts | 193° |
| 2026-05-04 12:45 | 37.64552 | 26.95161 | 2008 ft | 233 kts | 232° |
| 2026-05-04 12:46 | 37.63398 | 26.93688 | 2564 ft | 238 kts | 229° |
| 2026-05-04 12:46 | 37.62169 | 26.92249 | 3094 ft | 243 kts | 229° |
| 2026-05-04 12:46 | 37.60778 | 26.91001 | 3664 ft | 255 kts | 203° |
| 2026-05-04 12:46 | 37.59005 | 26.90794 | 4369 ft | 260 kts | 176° |
| 2026-05-04 12:47 | 37.57188 | 26.91079 | 5014 ft | 266 kts | 173° |
| 2026-05-04 12:47 | 37.55348 | 26.91369 | 5844 ft | 266 kts | 174° |
| 2026-05-04 12:47 | 37.53507 | 26.91604 | 6649 ft | 267 kts | 175° |
| 2026-05-04 12:47 | 37.51652 | 26.91801 | 7374 ft | 269 kts | 179° |
| 2026-05-04 12:48 | 37.49832 | 26.91324 | 8042 ft | 268 kts | 212° |
| 2026-05-04 12:48 | 37.48507 | 26.89754 | 8748 ft | 261 kts | 244° |
| 2026-05-04 12:48 | 37.47957 | 26.87627 | 9464 ft | 255 kts | 271° |
| 2026-05-04 12:48 | 37.48199 | 26.85483 | 10106 ft | 251 kts | 296° |
| 2026-05-04 12:49 | 37.49140 | 26.83696 | 10795 ft | 244 kts | 321° |
| 2026-05-04 12:49 | 37.50579 | 26.82610 | 11492 ft | 242 kts | 343° |
| 2026-05-04 12:49 | 37.52121 | 26.81736 | 12159 ft | 248 kts | 322° |
| 2026-05-04 12:49 | 37.53169 | 26.79992 | 12908 ft | 254 kts | 305° |
| 2026-05-04 12:50 | 37.54099 | 26.78084 | 13647 ft | 256 kts | 307° |
| 2026-05-04 12:50 | 37.55079 | 26.76189 | 14337 ft | 259 kts | 308° |
| 2026-05-04 12:50 | 37.56096 | 26.74308 | 15039 ft | 260 kts | 308° |
| 2026-05-04 12:50 | 37.57141 | 26.72431 | 15741 ft | 263 kts | 309° |
| 2026-05-04 12:51 | 37.58212 | 26.70545 | 16436 ft | 266 kts | 309° |
| 2026-05-04 12:51 | 37.59290 | 26.68670 | 17119 ft | 269 kts | 309° |
| 2026-05-04 12:51 | 37.60400 | 26.66757 | 17808 ft | 272 kts | 309° |
| 2026-05-04 12:51 | 37.61559 | 26.64771 | 18063 ft | 292 kts | 309° |
| 2026-05-04 12:52 | 37.62728 | 26.62644 | 18214 ft | 315 kts | 300° |
| 2026-05-04 12:52 | 37.63253 | 26.59791 | 18356 ft | 346 kts | 272° |
| 2026-05-04 12:52 | 37.62738 | 26.56721 | 18509 ft | 371 kts | 255° |
| 2026-05-04 12:52 | 37.61856 | 26.53580 | 18726 ft | 387 kts | 253° |
| 2026-05-04 12:53 | 37.60910 | 26.50363 | 19220 ft | 393 kts | 253° |
| 2026-05-04 12:53 | 37.59950 | 26.47127 | 19863 ft | 395 kts | 253° |
| 2026-05-04 12:53 | 37.58992 | 26.43881 | 20503 ft | 396 kts | 253° |
| 2026-05-04 12:53 | 37.58038 | 26.40612 | 21100 ft | 399 kts | 253° |
| 2026-05-04 12:54 | 37.57081 | 26.37313 | 21667 ft | 402 kts | 253° |
| 2026-05-04 12:54 | 37.56114 | 26.33985 | 22214 ft | 405 kts | 252° |
| 2026-05-04 12:54 | 37.54944 | 26.30743 | 22832 ft | 409 kts | 241° |
| 2026-05-04 12:54 | 37.53247 | 26.27858 | 23476 ft | 412 kts | 229° |
| 2026-05-04 12:55 | 37.51161 | 26.25379 | 24000 ft | 415 kts | 220° |
| 2026-05-04 12:55 | 37.48887 | 26.23114 | 24381 ft | 419 kts | 219° |
| 2026-05-04 12:55 | 37.46565 | 26.20843 | 24727 ft | 425 kts | 218° |
| 2026-05-04 12:55 | 37.44219 | 26.18553 | 25116 ft | 428 kts | 218° |
| 2026-05-04 12:56 | 37.41861 | 26.16243 | 25512 ft | 431 kts | 218° |
| 2026-05-04 12:56 | 37.39487 | 26.13908 | 25898 ft | 435 kts | 218° |
| 2026-05-04 12:56 | 37.37094 | 26.11545 | 26263 ft | 439 kts | 218° |
| 2026-05-04 12:56 | 37.34687 | 26.09164 | 26630 ft | 442 kts | 218° |
| 2026-05-04 12:57 | 37.32269 | 26.06770 | 27027 ft | 445 kts | 218° |
| 2026-05-04 12:57 | 37.29861 | 26.04385 | 27464 ft | 445 kts | 219° |
| 2026-05-04 12:57 | 37.27434 | 26.01982 | 28031 ft | 443 kts | 219° |
| 2026-05-04 12:57 | 37.25020 | 25.99594 | 28585 ft | 441 kts | 219° |
| 2026-05-04 12:58 | 37.22606 | 25.97208 | 29085 ft | 441 kts | 219° |
| 2026-05-04 12:58 | 37.20198 | 25.94831 | 29558 ft | 441 kts | 219° |
| 2026-05-04 12:58 | 37.17783 | 25.92448 | 30030 ft | 441 kts | 219° |
| 2026-05-04 12:59 | 37.12912 | 25.87650 | 30083 ft | 444 kts | 220° |
| 2026-05-04 12:59 | 37.08117 | 25.82937 | 30069 ft | 427 kts | 220° |
| 2026-05-04 13:00 | 37.03538 | 25.78445 | 30087 ft | 419 kts | 221° |
| 2026-05-04 13:00 | 36.98955 | 25.73949 | 30039 ft | 419 kts | 221° |
| 2026-05-04 13:00 | 36.96656 | 25.71696 | 29682 ft | 416 kts | 221° |
| 2026-05-04 13:01 | 36.94395 | 25.69485 | 29270 ft | 411 kts | 221° |
| 2026-05-04 13:01 | 36.92159 | 25.67300 | 28893 ft | 406 kts | 221° |
| 2026-05-04 13:01 | 36.89949 | 25.65141 | 28486 ft | 401 kts | 221° |
| 2026-05-04 13:01 | 36.87753 | 25.62999 | 28068 ft | 398 kts | 221° |
| 2026-05-04 13:02 | 36.85580 | 25.60879 | 27667 ft | 395 kts | 221° |
| 2026-05-04 13:02 | 36.83426 | 25.58778 | 27258 ft | 392 kts | 221° |
| 2026-05-04 13:02 | 36.81285 | 25.56693 | 26854 ft | 389 kts | 221° |
| 2026-05-04 13:02 | 36.79160 | 25.54625 | 26457 ft | 386 kts | 221° |
| 2026-05-04 13:03 | 36.77050 | 25.52572 | 26067 ft | 383 kts | 221° |
| 2026-05-04 13:03 | 36.74954 | 25.50535 | 25673 ft | 380 kts | 221° |
| 2026-05-04 13:03 | 36.72874 | 25.48515 | 25299 ft | 378 kts | 221° |
| 2026-05-04 13:03 | 36.70805 | 25.46507 | 24913 ft | 376 kts | 220° |
| 2026-05-04 13:04 | 36.68747 | 25.44511 | 24533 ft | 374 kts | 220° |
| 2026-05-04 13:04 | 36.66700 | 25.42526 | 24157 ft | 372 kts | 220° |
| 2026-05-04 13:04 | 36.64685 | 25.40576 | 23773 ft | 371 kts | 220° |
| 2026-05-04 13:04 | 36.62648 | 25.38603 | 23344 ft | 370 kts | 219° |
| 2026-05-04 13:05 | 36.60621 | 25.36643 | 22921 ft | 368 kts | 220° |
| 2026-05-04 13:05 | 36.58606 | 25.34696 | 22525 ft | 365 kts | 220° |
| 2026-05-04 13:05 | 36.56604 | 25.32763 | 22137 ft | 363 kts | 220° |
| 2026-05-04 13:05 | 36.54619 | 25.30847 | 21765 ft | 360 kts | 220° |
| 2026-05-04 13:06 | 36.52646 | 25.28945 | 21382 ft | 357 kts | 220° |
| 2026-05-04 13:06 | 36.50687 | 25.27057 | 21011 ft | 355 kts | 221° |
| 2026-05-04 13:06 | 36.48742 | 25.25182 | 20646 ft | 353 kts | 221° |
| 2026-05-04 13:06 | 36.46811 | 25.23322 | 20285 ft | 350 kts | 221° |
| 2026-05-04 13:07 | 36.44887 | 25.21471 | 19922 ft | 349 kts | 220° |
| 2026-05-04 13:07 | 36.42974 | 25.19631 | 19555 ft | 347 kts | 220° |
| 2026-05-04 13:07 | 36.41071 | 25.17803 | 19193 ft | 345 kts | 220° |
| 2026-05-04 13:07 | 36.39172 | 25.15980 | 18835 ft | 344 kts | 220° |
| 2026-05-04 13:08 | 36.37282 | 25.14166 | 18478 ft | 343 kts | 220° |
| 2026-05-04 13:08 | 36.35401 | 25.12363 | 18073 ft | 342 kts | 220° |
| 2026-05-04 13:08 | 36.33522 | 25.10562 | 17675 ft | 340 kts | 220° |
| 2026-05-04 13:08 | 36.31654 | 25.08772 | 17292 ft | 338 kts | 221° |
| 2026-05-04 13:09 | 36.29815 | 25.07013 | 16933 ft | 336 kts | 221° |
| 2026-05-04 13:09 | 36.27969 | 25.05247 | 16573 ft | 334 kts | 221° |
| 2026-05-04 13:09 | 36.26137 | 25.03496 | 16220 ft | 332 kts | 221° |
| 2026-05-04 13:09 | 36.24312 | 25.01752 | 15870 ft | 330 kts | 221° |
| 2026-05-04 13:10 | 36.22497 | 25.00019 | 15525 ft | 329 kts | 221° |
| 2026-05-04 13:10 | 36.20689 | 24.98294 | 15169 ft | 327 kts | 221° |
| 2026-05-04 13:10 | 36.18888 | 24.96576 | 14824 ft | 326 kts | 221° |
| 2026-05-04 13:10 | 36.17096 | 24.94868 | 14474 ft | 325 kts | 221° |
| 2026-05-04 13:11 | 36.15305 | 24.93162 | 14124 ft | 324 kts | 221° |
| 2026-05-04 13:11 | 36.13522 | 24.91464 | 13762 ft | 323 kts | 221° |
| 2026-05-04 13:11 | 36.11743 | 24.89771 | 13384 ft | 322 kts | 221° |
| 2026-05-04 13:11 | 36.09969 | 24.88084 | 13018 ft | 321 kts | 221° |
| 2026-05-04 13:12 | 36.08201 | 24.86404 | 12668 ft | 319 kts | 222° |
| 2026-05-04 13:12 | 36.06448 | 24.84740 | 12319 ft | 318 kts | 222° |
| 2026-05-04 13:12 | 36.04721 | 24.83100 | 11979 ft | 316 kts | 222° |
| 2026-05-04 13:12 | 36.02979 | 24.81447 | 11643 ft | 314 kts | 222° |
| 2026-05-04 13:13 | 36.01246 | 24.79804 | 11302 ft | 313 kts | 222° |
| 2026-05-04 13:13 | 35.99522 | 24.78171 | 10964 ft | 312 kts | 222° |
| 2026-05-04 13:13 | 35.97805 | 24.76544 | 10628 ft | 310 kts | 222° |
| 2026-05-04 13:13 | 35.96106 | 24.74936 | 10436 ft | 304 kts | 222° |
| 2026-05-04 13:14 | 35.94438 | 24.73360 | 10192 ft | 300 kts | 222° |
| 2026-05-04 13:14 | 35.92796 | 24.71809 | 10022 ft | 293 kts | 222° |
| 2026-05-04 13:14 | 35.91186 | 24.70288 | 9719 ft | 291 kts | 222° |
| 2026-05-04 13:14 | 35.89582 | 24.68771 | 9418 ft | 289 kts | 222° |
| 2026-05-04 13:15 | 35.87990 | 24.67268 | 9125 ft | 287 kts | 222° |
| 2026-05-04 13:15 | 35.86410 | 24.65777 | 8833 ft | 285 kts | 222° |
| 2026-05-04 13:15 | 35.84840 | 24.64296 | 8549 ft | 283 kts | 223° |
| 2026-05-04 13:15 | 35.83279 | 24.62823 | 8264 ft | 282 kts | 223° |
| 2026-05-04 13:16 | 35.81743 | 24.61376 | 7976 ft | 281 kts | 223° |
| 2026-05-04 13:16 | 35.80197 | 24.59920 | 7700 ft | 279 kts | 223° |
| 2026-05-04 13:16 | 35.78653 | 24.58466 | 7418 ft | 278 kts | 223° |
| 2026-05-04 13:16 | 35.77119 | 24.57023 | 7136 ft | 277 kts | 223° |
| 2026-05-04 13:17 | 35.75589 | 24.55584 | 6858 ft | 275 kts | 223° |
| 2026-05-04 13:17 | 35.74071 | 24.54157 | 6582 ft | 274 kts | 223° |
| 2026-05-04 13:17 | 35.72557 | 24.52734 | 6288 ft | 273 kts | 223° |
| 2026-05-04 13:17 | 35.71050 | 24.51319 | 6001 ft | 271 kts | 223° |
| 2026-05-04 13:18 | 35.69553 | 24.49913 | 5720 ft | 270 kts | 222° |
| 2026-05-04 13:18 | 35.68063 | 24.48515 | 5442 ft | 268 kts | 222° |
| 2026-05-04 13:18 | 35.66584 | 24.47127 | 5179 ft | 266 kts | 222° |
| 2026-05-04 13:18 | 35.65112 | 24.45747 | 4913 ft | 265 kts | 221° |
| 2026-05-04 13:19 | 35.63671 | 24.44397 | 4637 ft | 263 kts | 221° |
| 2026-05-04 13:19 | 35.62691 | 24.43480 | 4444 ft | 262 kts | 221° |
| 2026-05-04 13:19 | 35.60796 | 24.41708 | 4242 ft | 253 kts | 221° |
| 2026-05-04 13:19 | 35.59416 | 24.40411 | 4087 ft | 246 kts | 223° |
| 2026-05-04 13:20 | 35.58195 | 24.38958 | 3844 ft | 242 kts | 231° |
| 2026-05-04 13:20 | 35.57068 | 24.37433 | 3607 ft | 240 kts | 231° |
| 2026-05-04 13:20 | 35.55949 | 24.35914 | 3363 ft | 239 kts | 231° |
| 2026-05-04 13:20 | 35.54831 | 24.34418 | 3122 ft | 237 kts | 231° |
| 2026-05-04 13:21 | 35.53707 | 24.32930 | 3022 ft | 239 kts | 231° |
| 2026-05-04 13:21 | 35.52577 | 24.31442 | 2983 ft | 236 kts | 230° |
| 2026-05-04 13:21 | 35.51432 | 24.29940 | 2264 ft | 243 kts | 230° |
| 2026-05-04 13:21 | 35.50325 | 24.28476 | 1992 ft | 221 kts | 234° |
| 2026-05-04 13:22 | 35.49734 | 24.26891 | 1850 ft | 193 kts | 265° |
| 2026-05-04 13:22 | 35.49792 | 24.25335 | 1682 ft | 174 kts | 284° |
| 2026-05-04 13:22 | 35.50148 | 24.24014 | 1528 ft | 157 kts | 293° |
| 2026-05-04 13:22 | 35.50542 | 24.22816 | 1374 ft | 146 kts | 292° |
| 2026-05-04 13:23 | 35.50904 | 24.21726 | 1205 ft | 133 kts | 291° |
| 2026-05-04 13:23 | 35.51243 | 24.20703 | 1094 ft | 129 kts | 291° |
| 2026-05-04 13:23 | 35.51594 | 24.19700 | 1007 ft | 127 kts | 292° |
| 2026-05-04 13:23 | 35.51951 | 24.18704 | 886 ft | 129 kts | 294° |
| 2026-05-04 13:24 | 35.52292 | 24.17674 | 698 ft | 130 kts | 292° |
| 2026-05-04 13:24 | 35.52626 | 24.16671 | 525 ft | 124 kts | 292° |
| 2026-05-04 13:24 | 35.52920 | 24.15763 | 487 ft | 98 kts | 292° |
| 2026-05-04 13:25 | 35.53202 | 24.14895 | 490 ft | 19 kts | 291° |
| 2026-05-04 13:25 | 35.53251 | 24.14745 | 489 ft | 19 kts | 291° |
| 2026-05-04 13:25 | 35.53298 | 24.14599 | 489 ft | 18 kts | 292° |
| 2026-05-04 13:25 | 35.53345 | 24.14455 | 496 ft | 19 kts | 292° |
| 2026-05-04 13:26 | 35.53392 | 24.14310 | 489 ft | 18 kts | 291° |
| 2026-05-04 13:26 | 35.53457 | 24.14273 | 497 ft | 11 kts | 19° |
| 2026-05-04 13:26 | 35.53542 | 24.14312 | 491 ft | 16 kts | 20° |
| 2026-05-04 13:26 | 35.53655 | 24.14365 | 492 ft | 15 kts | 14° |
| 2026-05-04 13:27 | 35.53712 | 24.14291 | 489 ft | 13 kts | 288° |
| 2026-05-04 13:27 | 35.53750 | 24.14175 | 494 ft | 16 kts | 292° |
| 2026-05-04 13:27 | 35.53789 | 24.14056 | 492 ft | 10 kts | 300° |
| 2026-05-04 13:27 | 35.53822 | 24.14040 | 491 ft | 6 kts | 9° |
| 2026-05-04 13:28 | 35.53861 | 24.14057 | 497 ft | 6 kts | 20° |
| 2026-05-04 13:28 | 35.53876 | 24.14064 | 497 ft | 0 kts | 20° |